Etusivu
METAR-TAF:

METAR-TAF

Lentoasemat :

Joensuu, Suomi

Joensuun lentoasema

Leveyspiiri: 62-40N, Pituuspiiri: 029-38E, korkeus merenpinnasta: 119 m

Tämänhetkinen sää

Tämä raportti tehtiin 23 minuuttia sitten, kello 22.50 UTC
Tuuli 8 kn etelästä/lounaasta, vaihdellen etelän ja lännen/lounaan välillä
Lämpötila 2°C
Kosteus 87%
Ilmanpaine 996 hPa
Näkyvyys 10 km tai enemmän
Pilvistä 2100 ft:n korkeudessa

METAR: EFJO 172250Z AUTO 21008KT 180V250 9999 OVC021 02/M00 Q0996

Aika: 01:13 (23:13 UTC)

Sääennuste

Tämä raportti tehtiin 2 tuntia ja 42 minuuttia sitten, kello 20.31 UTC
Ennuste voimassa 17. päivästä klo 21 UTC - 17. päivään klo 24 UTC
Tuuli 10 kn lounaasta
Näkyvyys 10 km tai enemmän
Hajonneita pilviä 3500 ft:n korkeudessa

TAF: EFJO 172031Z 1721/1724 22010KT 9999 BKN035

Säähavainnot ja -ennusteet yli 4000 lentoasemalta (METAR- ja TAF-raportit).

Käytössä olevat sääasemat on merkitty karttaan keltaisilla ja punaisilla pisteillä.

Aseta hiiri pisteen päälle nähdäksesi sääaseman nimen.

Klikkaa sitten nähdäksesi säähavainnot ja -ennusteet.

Kartan vaihtaminen: klikkaa mustalla rastilla varustettuja vihreitä pisteitä, niin voit zoomata sisään; viivalla varustettua vihreää pistettä, niin voit zoomata ulos tai vihreitä nuolia, niin pääset viereisille kartoille.


METAR-TAF: